Time;durP1;ratioP1;P1;durP2;ratioP2;P2;SDS_P1;SDS_P2;PMS_P1;PMS_P2;Temp;Humidity;BMP_temperature;BMP_pressure;BME280_temperature;BME280_humidity;BME280_pressure;Samples;Min_cycle;Max_cycle;Signal;HPM_P1;HPM_P2
2023/12/03 00:02:06;;;;;;;;;;;;;;;15.89;56.87;99801.63;4988195;28;1112;-52
2023/12/03 00:04:32;;;;;;;;;;;;;;;15.79;56.67;99801.75;4993414;28;1062;-52
2023/12/03 00:06:57;;;;;;;;;;;;;;;15.74;56.38;99799.88;4992582;28;1128;-50
2023/12/03 00:09:23;;;;;;;;;;;;;;;16.73;56.99;99806.53;4981592;28;1142;-52
2023/12/03 00:11:48;;;;;;;;;;;;;;;16.73;56.96;99802.97;4980305;28;1032;-54
2023/12/03 00:14:14;;;;;;;;;;;;;;;16.22;57.31;99815.50;4994705;28;1157;-52
2023/12/03 00:16:39;;;;;;;;;;;;;;;16.03;57.15;99819.03;4979943;28;1972;-51
2023/12/03 00:19:05;;;;;;;;;;;;;;;15.85;56.99;99817.88;4992608;28;1045;-54
2023/12/03 00:21:30;;;;;;;;;;;;;;;15.76;56.61;99825.06;4980159;28;886;-51
2023/12/03 00:23:56;;;;;;;;;;;;;;;16.27;57.80;99831.06;4979659;28;1046;-50
2023/12/03 00:26:21;;;;;;;;;;;;;;;17.27;55.78;99828.22;4979661;28;1193;-47
2023/12/03 00:28:47;;;;;;;;;;;;;;;16.46;57.19;99842.06;4992754;28;1040;-50
2023/12/03 00:31:12;;;;;;;;;;;;;;;16.14;57.17;99841.63;4979821;28;1093;-52
2023/12/03 00:33:38;;;;;;;;;;;;;;;16.00;56.90;99849.75;4980161;28;1208;-52
2023/12/03 00:36:03;;;;;;;;;;;;;;;15.84;56.96;99837.34;4991166;28;1961;-51
2023/12/03 00:38:29;;;;;;;;;;;;;;;15.78;56.59;99830.25;4985522;28;1075;-52
2023/12/03 00:40:54;;;;;;;;;;;;;;;15.69;56.74;99836.38;4988963;28;1148;-52
2023/12/03 00:43:20;;;;;;;;;;;;;;;16.87;56.94;99835.97;4991962;28;1170;-52
2023/12/03 00:45:45;;;;;;;;;;;;;;;16.85;56.70;99835.47;4978956;28;886;-52
2023/12/03 00:48:11;;;;;;;;;;;;;;;16.23;57.33;99823.44;4979692;28;1144;-51
2023/12/03 00:50:36;;;;;;;;;;;;;;;16.04;57.12;99831.63;4979552;28;1044;-53
2023/12/03 00:53:02;;;;;;;;;;;;;;;15.92;56.93;99822.97;4979428;28;1037;-54
2023/12/03 00:55:27;;;;;;;;;;;;;;;15.81;56.85;99836.00;4978745;28;1895;-54
2023/12/03 00:57:53;;;;;;;;;;;;;;;15.68;56.84;99840.22;4994788;28;1115;-51
2023/12/03 01:00:18;;;;;;;;;;;;;;;15.79;57.37;99846.44;4989363;28;1031;-55
2023/12/03 01:02:44;;;;;;;;;;;;;;;17.02;56.77;99851.44;4995146;28;1069;-54
2023/12/03 01:05:09;;;;;;;;;;;;;;;16.62;57.27;99854.47;4989403;28;1120;-52
2023/12/03 01:07:35;;;;;;;;;;;;;;;16.20;57.27;99851.47;4978761;28;1048;-50
2023/12/03 01:10:00;;;;;;;;;;;;;;;15.99;57.20;99859.13;4988164;28;905;-54
2023/12/03 01:12:26;;;;;;;;;;;;;;;15.84;57.18;99860.09;4981753;28;1068;-51
2023/12/03 01:14:51;;;;;;;;;;;;;;;15.77;56.80;99864.25;4988355;28;1207;-51
2023/12/03 01:17:17;;;;;;;;;;;;;;;15.66;56.56;99866.28;4985204;28;1922;-53
2023/12/03 01:19:42;;;;;;;;;;;;;;;15.56;56.81;99850.75;4989164;28;1146;-49
2023/12/03 01:22:08;;;;;;;;;;;;;;;16.45;57.69;99851.41;4978873;28;1208;-51
2023/12/03 01:24:33;;;;;;;;;;;;;;;16.89;56.92;99844.78;4978815;28;1131;-51
2023/12/03 01:26:59;;;;;;;;;;;;;;;16.20;57.64;99856.09;4981173;28;1176;-53
2023/12/03 01:29:24;;;;;;;;;;;;;;;16.00;57.44;99863.47;4988987;28;1136;-54
2023/12/03 01:31:50;;;;;;;;;;;;;;;15.85;57.27;99860.91;4991886;28;1156;-53
2023/12/03 01:34:15;;;;;;;;;;;;;;;15.71;57.06;99856.09;4987937;28;909;-55
2023/12/03 01:36:41;;;;;;;;;;;;;;;15.76;57.69;99857.94;4981824;28;1911;-52
2023/12/03 01:39:06;;;;;;;;;;;;;;;16.96;56.86;99867.19;4987619;28;1148;-54
2023/12/03 01:41:32;;;;;;;;;;;;;;;16.41;57.76;99860.25;4995444;28;1075;-54
2023/12/03 01:43:57;;;;;;;;;;;;;;;16.05;57.73;99852.44;4978296;28;1080;-55
2023/12/03 01:46:23;;;;;;;;;;;;;;;15.91;57.47;99865.25;4991203;28;995;-54
2023/12/03 01:48:49;;;;;;;;;;;;;;;15.79;56.85;99856.56;4986873;28;1057;-55
2023/12/03 01:51:15;;;;;;;;;;;;;;;15.64;56.71;99849.31;4997998;28;1052;-53
2023/12/03 01:53:41;;;;;;;;;;;;;;;15.95;57.75;99855.31;4997769;28;1153;-55
2023/12/03 01:56:06;;;;;;;;;;;;;;;17.17;56.24;99864.13;4982163;28;1902;-55
2023/12/03 01:58:32;;;;;;;;;;;;;;;16.73;57.20;99864.19;4986930;28;905;-53
2023/12/03 02:00:58;;;;;;;;;;;;;;;16.28;57.35;99866.44;4995291;28;1045;-54
2023/12/03 02:03:24;;;;;;;;;;;;;;;16.03;57.40;99862.06;4978018;28;1208;-52
2023/12/03 02:06:04;;;;;;;;;;;;;;;15.90;57.15;99871.81;4993176;28;1115;-54
2023/12/03 02:08:29;;;;;;;;;;;;;;;15.79;56.93;99870.25;4997141;28;1044;-54
2023/12/03 02:10:55;;;;;;;;;;;;;;;15.68;56.84;99873.13;4983736;28;848;-50
2023/12/03 02:13:20;;;;;;;;;;;;;;;15.57;56.63;99874.31;4997953;28;1084;-55
2023/12/03 02:15:46;;;;;;;;;;;;;;;16.15;57.79;99867.16;4995492;28;1979;-51
2023/12/03 02:18:12;;;;;;;;;;;;;;;17.23;56.54;99876.63;4996890;28;1104;-52
2023/12/03 02:20:37;;;;;;;;;;;;;;;16.51;57.52;99877.66;4983941;28;1114;-55
2023/12/03 02:23:03;;;;;;;;;;;;;;;16.16;57.52;99877.84;4986373;28;966;-52
2023/12/03 02:25:28;;;;;;;;;;;;;;;15.97;57.38;99885.19;4990685;28;1097;-53
2023/12/03 02:27:54;;;;;;;;;;;;;;;15.80;57.18;99875.47;4977716;28;1144;-53
2023/12/03 02:30:19;;;;;;;;;;;;;;;15.73;56.91;99884.00;4990315;28;1076;-51
2023/12/03 02:32:45;;;;;;;;;;;;;;;15.72;57.59;99874.19;4987000;28;1052;-52
2023/12/03 02:35:10;;;;;;;;;;;;;;;16.96;57.29;99869.09;4993786;28;1985;-53
2023/12/03 02:37:36;;;;;;;;;;;;;;;16.72;57.30;99887.25;4977387;28;1128;-49
2023/12/03 02:40:01;;;;;;;;;;;;;;;16.21;57.87;99885.19;4977754;28;1439;-52
2023/12/03 02:42:27;;;;;;;;;;;;;;;15.99;57.57;99888.44;4977463;28;1390;-53
2023/12/03 02:44:52;;;;;;;;;;;;;;;15.86;57.08;99889.94;4977895;28;1123;-52
2023/12/03 02:47:18;;;;;;;;;;;;;;;15.73;56.91;99881.28;4987237;28;913;-53
2023/12/03 02:49:45;;;;;;;;;;;;;;;15.63;56.86;99886.88;4977123;28;1127;-51
2023/12/03 02:52:10;;;;;;;;;;;;;;;15.57;56.46;99907.19;4977154;28;1069;-54
2023/12/03 02:54:37;;;;;;;;;;;;;;;15.58;57.10;99906.09;4977483;28;1139;-54
2023/12/03 02:57:05;;;;;;;;;;;;;;;16.76;57.79;99907.53;4977243;28;1984;-53
2023/12/03 02:59:30;;;;;;;;;;;;;;;17.40;56.13;99907.16;4978714;28;1077;-54
2023/12/03 03:01:56;;;;;;;;;;;;;;;16.54;57.49;99910.03;4996486;28;1094;-55
2023/12/03 03:04:22;;;;;;;;;;;;;;;16.19;57.47;99909.34;4980841;28;1065;-54
2023/12/03 03:06:47;;;;;;;;;;;;;;;16.00;57.17;99896.38;4977341;28;1088;-53
2023/12/03 03:09:13;;;;;;;;;;;;;;;15.86;56.94;99889.94;4977166;28;1085;-52
2023/12/03 03:11:38;;;;;;;;;;;;;;;15.76;56.77;99895.53;4977146;28;1074;-55
2023/12/03 03:14:04;;;;;;;;;;;;;;;15.99;57.74;99894.75;4992457;28;1196;-56
2023/12/03 03:16:29;;;;;;;;;;;;;;;17.13;56.96;99887.81;4987773;28;1915;-54
2023/12/03 03:18:55;;;;;;;;;;;;;;;16.42;57.64;99892.06;4986405;28;1088;-55
2023/12/03 03:21:20;;;;;;;;;;;;;;;16.08;57.52;99893.00;4976626;28;1549;-55
2023/12/03 03:23:46;;;;;;;;;;;;;;;15.90;57.42;99901.97;4990072;28;1144;-54
2023/12/03 03:26:11;;;;;;;;;;;;;;;15.76;57.23;99898.25;4977144;28;1045;-54
2023/12/03 03:28:37;;;;;;;;;;;;;;;15.94;57.81;99916.75;4978858;28;1093;-54
2023/12/03 03:31:02;;;;;;;;;;;;;;;16.92;57.39;99913.63;4988216;28;1112;-56
2023/12/03 03:33:28;;;;;;;;;;;;;;;16.29;57.73;99914.72;4978500;28;1149;-54
2023/12/03 03:35:53;;;;;;;;;;;;;;;15.97;57.76;99913.41;4991315;28;1915;-53
2023/12/03 03:38:19;;;;;;;;;;;;;;;15.83;57.43;99920.69;4983592;28;1211;-55
2023/12/03 03:40:44;;;;;;;;;;;;;;;15.68;57.26;99914.22;4999802;28;1080;-55
2023/12/03 03:43:10;;;;;;;;;;;;;;;16.39;58.30;99927.50;4999638;28;1072;-56
2023/12/03 03:45:36;;;;;;;;;;;;;;;17.25;56.42;99923.84;4999684;28;1098;-54
2023/12/03 03:48:01;;;;;;;;;;;;;;;16.46;57.67;99941.66;4985443;28;1056;-54
2023/12/03 03:50:27;;;;;;;;;;;;;;;16.11;57.52;99949.19;4988970;28;1138;-55
2023/12/03 03:52:52;;;;;;;;;;;;;;;15.93;57.34;99939.78;4998938;28;1095;-53
2023/12/03 03:55:18;;;;;;;;;;;;;;;15.79;57.00;99938.78;4991914;28;1902;-53
2023/12/03 03:57:43;;;;;;;;;;;;;;;15.72;56.84;99945.44;4993258;28;1204;-53
2023/12/03 04:00:10;;;;;;;;;;;;;;;16.13;58.26;99948.91;4980300;28;1148;-54
2023/12/03 04:02:38;;;;;;;;;;;;;;;17.22;56.68;99957.41;4982564;28;1117;-52
2023/12/03 04:05:04;;;;;;;;;;;;;;;16.41;57.71;99955.44;4999753;28;1024;-54
2023/12/03 04:07:30;;;;;;;;;;;;;;;16.10;57.63;99960.44;4997268;28;1068;-53
2023/12/03 04:09:55;;;;;;;;;;;;;;;15.95;57.25;99956.78;4980160;28;1009;-51
2023/12/03 04:12:21;;;;;;;;;;;;;;;15.81;57.17;99974.97;4992616;28;1157;-54
2023/12/03 04:14:46;;;;;;;;;;;;;;;15.68;56.95;99982.75;4980318;28;1036;-53
2023/12/03 04:17:12;;;;;;;;;;;;;;;15.81;57.75;99975.81;4979841;28;1970;-53
2023/12/03 04:19:37;;;;;;;;;;;;;;;17.01;57.20;99979.72;4979895;28;1137;-52
2023/12/03 04:22:03;;;;;;;;;;;;;;;16.50;57.76;99985.81;4979529;28;1115;-57
2023/12/03 04:24:28;;;;;;;;;;;;;;;16.13;57.87;100006.50;4989037;28;1073;-58
2023/12/03 04:26:54;;;;;;;;;;;;;;;15.95;57.42;100008.03;4999061;28;1071;-52
2023/12/03 04:29:19;;;;;;;;;;;;;;;15.82;57.12;100017.75;4999452;28;1123;-54
2023/12/03 04:31:46;;;;;;;;;;;;;;;15.67;57.14;100016.72;4985501;28;1119;-52
2023/12/03 04:34:12;;;;;;;;;;;;;;;15.60;56.93;100007.19;4992335;28;1203;-55
2023/12/03 04:36:37;;;;;;;;;;;;;;;15.48;56.77;100021.25;4979971;28;1978;-53
2023/12/03 04:39:04;;;;;;;;;;;;;;;15.91;58.08;100010.53;4979933;28;1049;-54
2023/12/03 04:41:34;;;;;;;;;;;;;;;17.05;57.25;100005.44;4994106;28;1040;-53
2023/12/03 04:43:59;;;;;;;;;;;;;;;16.84;57.42;100020.53;4998673;28;1012;-52
2023/12/03 04:46:25;;;;;;;;;;;;;;;16.27;57.90;100026.66;4983554;28;1100;-50
2023/12/03 04:48:50;;;;;;;;;;;;;;;16.05;57.76;100033.44;4979824;28;1121;-48
2023/12/03 04:51:16;;;;;;;;;;;;;;;15.86;57.50;100038.00;4979846;28;1206;-51
2023/12/03 04:53:42;;;;;;;;;;;;;;;15.77;57.30;100040.50;4979232;28;1133;-54
2023/12/03 04:56:08;;;;;;;;;;;;;;;15.67;57.10;100057.84;4994688;28;1973;-53
2023/12/03 04:58:33;;;;;;;;;;;;;;;16.55;58.45;100055.19;4989830;28;1173;-53
2023/12/03 05:00:59;;;;;;;;;;;;;;;17.45;56.28;100060.94;4981223;28;998;-54
2023/12/03 05:03:24;;;;;;;;;;;;;;;16.62;57.50;100071.31;4998767;28;1067;-53
2023/12/03 05:05:51;;;;;;;;;;;;;;;16.22;57.55;100073.34;4985300;28;1204;-54
2023/12/03 05:08:17;;;;;;;;;;;;;;;16.05;57.44;100082.81;4998540;28;1075;-51
2023/12/03 05:10:42;;;;;;;;;;;;;;;15.94;57.12;100094.97;4993877;28;1194;-50
2023/12/03 05:13:08;;;;;;;;;;;;;;;15.81;56.83;100101.91;4985563;28;1185;-49
2023/12/03 05:15:34;;;;;;;;;;;;;;;15.66;56.73;100093.75;4978909;28;1976;-54
2023/12/03 05:17:59;;;;;;;;;;;;;;;15.88;57.88;100098.84;4998055;28;1060;-47
2023/12/03 05:20:25;;;;;;;;;;;;;;;17.05;57.30;100109.00;4995858;28;1000;-52
2023/12/03 05:22:51;;;;;;;;;;;;;;;16.69;57.71;100117.63;4984134;28;2718;-53
2023/12/03 05:25:17;;;;;;;;;;;;;;;16.18;57.97;100127.13;4969646;28;1526;-52
2023/12/03 05:27:42;;;;;;;;;;;;;;;16.00;57.75;100132.19;4989329;28;1120;-51
2023/12/03 05:30:08;;;;;;;;;;;;;;;17.16;55.81;100137.19;4992895;28;1006;-52
2023/12/03 05:32:34;;;;;;;;;;;;;;;16.31;55.24;100126.47;4997507;28;1083;-50
2023/12/03 05:34:59;;;;;;;;;;;;;;;16.10;53.13;100135.97;4981165;28;1549;-52
2023/12/03 05:37:28;;;;;;;;;;;;;;;15.89;51.77;100136.13;4978068;28;1910;-53
2023/12/03 05:39:54;;;;;;;;;;;;;;;15.85;50.72;100144.09;4991157;28;1029;-50
2023/12/03 05:42:20;;;;;;;;;;;;;;;15.71;50.16;100140.31;4978172;28;1052;-50
2023/12/03 05:44:46;;;;;;;;;;;;;;;15.65;49.62;100157.91;4993110;28;1133;-52
2023/12/03 05:47:12;;;;;;;;;;;;;;;15.64;48.94;100161.72;4989948;28;1005;-52
2023/12/03 05:49:38;;;;;;;;;;;;;;;15.45;48.94;100154.16;4990885;28;1005;-53
2023/12/03 05:52:03;;;;;;;;;;;;;;;16.24;52.74;100158.91;4982866;28;2288;-52
2023/12/03 05:54:29;;;;;;;;;;;;;;;15.79;51.58;100169.06;4992968;28;1069;-52
2023/12/03 05:56:54;;;;;;;;;;;;;;;15.69;50.36;100175.41;4996453;28;1922;-52
2023/12/03 05:59:22;;;;;;;;;;;;;;;15.51;49.69;100165.91;4989493;28;1008;-54
2023/12/03 06:01:48;;;;;;;;;;;;;;;15.46;48.99;100165.91;4988175;28;1075;-50
2023/12/03 06:04:13;;;;;;;;;;;;;;;15.45;48.65;100178.00;4993412;28;1093;-51
2023/12/03 06:06:39;;;;;;;;;;;;;;;16.04;50.23;100187.31;4988850;28;945;-53
2023/12/03 06:09:05;;;;;;;;;;;;;;;15.87;51.05;100182.22;4990615;28;1062;-52
2023/12/03 06:11:32;;;;;;;;;;;;;;;15.64;50.21;100189.97;4978024;28;1045;-50
2023/12/03 06:13:57;;;;;;;;;;;;;;;16.39;52.06;100201.88;4992521;28;1049;-50
2023/12/03 06:16:23;;;;;;;;;;;;;;;15.86;51.36;100208.78;4996599;28;1929;-54
2023/12/03 06:18:49;;;;;;;;;;;;;;;15.71;49.88;100223.38;4981444;28;1108;-53
2023/12/03 06:21:14;;;;;;;;;;;;;;;15.64;48.83;100233.81;4985794;28;1203;-54
2023/12/03 06:23:40;;;;;;;;;;;;;;;15.54;48.11;100225.63;4987567;28;2102;-55
2023/12/03 06:26:06;;;;;;;;;;;;;;;15.63;48.55;100234.13;4985593;28;1022;-52
2023/12/03 06:28:31;;;;;;;;;;;;;;;16.05;51.22;100224.59;4994527;28;1023;-56
2023/12/03 06:30:57;;;;;;;;;;;;;;;15.77;50.12;100237.03;4985612;28;1091;-51
2023/12/03 06:33:22;;;;;;;;;;;;;;;15.67;48.85;100222.28;4983671;28;1020;-53
2023/12/03 06:35:49;;;;;;;;;;;;;;;15.77;48.95;100218.69;4995021;28;1906;-55
2023/12/03 06:38:15;;;;;;;;;;;;;;;16.51;51.49;100228.94;4994486;28;1132;-52
2023/12/03 06:40:40;;;;;;;;;;;;;;;16.01;50.49;100232.56;4985472;28;1001;-55
2023/12/03 06:43:06;;;;;;;;;;;;;;;15.74;49.49;100246.66;4981520;28;1047;-53
2023/12/03 06:45:32;;;;;;;;;;;;;;;15.70;48.70;100243.66;4985075;28;1061;-52
2023/12/03 06:47:57;;;;;;;;;;;;;;;15.68;47.50;100240.38;4986376;28;996;-53
2023/12/03 06:50:22;;;;;;;;;;;;;;;15.47;47.37;100238.81;4984838;28;1107;-52
2023/12/03 06:52:48;;;;;;;;;;;;;;;16.40;50.45;100253.72;4983531;28;2265;-53
2023/12/03 06:55:14;;;;;;;;;;;;;;;16.11;50.89;100263.78;4996571;28;1099;-54
2023/12/03 06:57:39;;;;;;;;;;;;;;;15.82;49.82;100261.72;4996343;28;2003;-54
2023/12/03 07:00:06;;;;;;;;;;;;;;;15.74;48.71;100260.38;4993842;28;822;-51
2023/12/03 07:02:32;;;;;;;;;;;;;;;15.81;48.81;100271.03;4983419;28;1260;-51
2023/12/03 07:04:57;;;;;;;;;;;;;;;16.71;51.21;100285.63;4995969;28;1111;-52
2023/12/03 07:07:22;;;;;;;;;;;;;;;16.10;50.52;100278.59;4983560;28;1084;-53
2023/12/03 07:09:48;;;;;;;;;;;;;;;15.89;49.36;100278.69;4999287;28;998;-53
2023/12/03 07:12:13;;;;;;;;;;;;;;;15.80;48.52;100281.19;4991124;28;984;-52
2023/12/03 07:14:39;;;;;;;;;;;;;;;16.13;49.21;100281.59;4992623;28;1059;-54
2023/12/03 07:17:04;;;;;;;;;;;;;;;15.98;49.69;100277.00;4994994;28;1980;-51
2023/12/03 07:19:30;;;;;;;;;;;;;;;15.81;48.61;100274.63;5000413;28;1004;-52
2023/12/03 07:21:56;;;;;;;;;;;;;;;16.52;50.05;100285.47;4998651;28;2417;-52
2023/12/03 07:24:21;;;;;;;;;;;;;;;16.06;49.78;100279.16;4991211;28;877;-53
2023/12/03 07:26:47;;;;;;;;;;;;;;;15.91;48.78;100287.47;4987375;28;1039;-50
2023/12/03 07:29:12;;;;;;;;;;;;;;;15.77;47.98;100300.09;4999538;28;1047;-52
2023/12/03 07:31:38;;;;;;;;;;;;;;;15.70;47.27;100298.47;5000028;28;1019;-52
2023/12/03 07:34:03;;;;;;;;;;;;;;;16.58;49.67;100307.13;4992521;28;1135;-49
2023/12/03 07:36:29;;;;;;;;;;;;;;;16.20;50.15;100311.44;4992917;28;1989;-53
2023/12/03 07:38:55;;;;;;;;;;;;;;;16.00;49.10;100315.94;4987813;28;1009;-52
2023/12/03 07:41:21;;;;;;;;;;;;;;;15.94;48.33;100319.81;5000014;28;1083;-52
2023/12/03 07:43:46;;;;;;;;;;;;;;;15.81;48.33;100314.91;4992321;28;1065;-54
2023/12/03 07:46:18;;;;;;;;;;;;;;;16.64;50.22;100309.84;4993356;28;1144;-50
2023/12/03 07:48:44;;;;;;;;;;;;;;;16.15;49.87;100308.75;4984286;28;990;-54
2023/12/03 07:51:10;;;;;;;;;;;;;;;15.99;48.87;100308.81;4981558;28;1113;-53
2023/12/03 07:53:35;;;;;;;;;;;;;;;15.85;47.97;100316.84;4992912;28;2696;-53
2023/12/03 07:56:01;;;;;;;;;;;;;;;15.78;47.23;100329.16;4997791;28;1946;-52
2023/12/03 07:58:26;;;;;;;;;;;;;;;16.67;49.53;100334.78;4979954;28;1128;-54
2023/12/03 08:00:52;;;;;;;;;;;;;;;16.11;49.40;100335.91;4983020;28;1081;-51
2023/12/03 08:03:17;;;;;;;;;;;;;;;15.95;48.59;100337.91;4999583;28;1027;-53
2023/12/03 08:05:43;;;;;;;;;;;;;;;15.87;47.87;100339.28;4986504;28;1128;-50
2023/12/03 08:08:08;;;;;;;;;;;;;;;15.73;47.38;100336.28;4991655;28;1088;-51
2023/12/03 08:10:34;;;;;;;;;;;;;;;16.49;49.06;100351.91;4994093;28;1060;-52
2023/12/03 08:12:59;;;;;;;;;;;;;;;16.26;49.87;100346.00;4994155;28;907;-51
2023/12/03 08:15:25;;;;;;;;;;;;;;;15.94;49.25;100347.22;4997548;28;1902;-53
2023/12/03 08:17:51;;;;;;;;;;;;;;;15.78;48.47;100351.09;4987924;28;1151;-50
2023/12/03 08:20:17;;;;;;;;;;;;;;;16.19;48.70;100348.25;4997079;28;1021;-52
2023/12/03 08:22:42;;;;;;;;;;;;;;;16.71;50.33;100352.31;4980047;28;2128;-53
2023/12/03 08:25:08;;;;;;;;;;;;;;;16.25;49.90;100344.34;4981010;28;1260;-51
2023/12/03 08:27:33;;;;;;;;;;;;;;;16.11;48.72;100329.63;4979987;28;1146;-54
2023/12/03 08:29:59;;;;;;;;;;;;;;;15.95;47.68;100340.66;4995226;28;1187;-52
2023/12/03 08:32:24;;;;;;;;;;;;;;;16.86;49.98;100356.09;4998725;28;1068;-51
2023/12/03 08:34:50;;;;;;;;;;;;;;;16.41;49.85;100348.66;4996709;28;1096;-52
2023/12/03 08:37:15;;;;;;;;;;;;;;;16.12;48.95;100345.78;4985358;28;1989;-53
2023/12/03 08:39:41;;;;;;;;;;;;;;;16.03;48.18;100344.72;4992559;28;1014;-49
2023/12/03 08:42:07;;;;;;;;;;;;;;;15.91;47.64;100358.75;4991483;28;1163;-51
2023/12/03 08:44:33;;;;;;;;;;;;;;;15.85;47.03;100359.84;4986487;28;1316;-49
2023/12/03 08:46:59;;;;;;;;;;;;;;;15.77;46.57;100357.66;4971704;28;985;-50
2023/12/03 08:49:24;;;;;;;;;;;;;;;15.72;46.24;100351.13;4979654;28;882;-47
2023/12/03 08:51:51;;;;;;;;;;;;;;;16.57;49.03;100354.88;4978663;28;2349;-48
2023/12/03 08:54:16;;;;;;;;;;;;;;;16.28;49.61;100357.50;4992078;28;1136;-50
2023/12/03 08:56:42;;;;;;;;;;;;;;;15.98;48.64;100364.75;4977987;28;1979;-48
2023/12/03 08:59:09;;;;;;;;;;;;;;;15.92;47.99;100371.34;4995654;28;1125;-50
2023/12/03 09:01:38;;;;;;;;;;;;;;;16.75;49.66;100372.63;4982512;28;841;-46
2023/12/03 09:04:04;;;;;;;;;;;;;;;16.17;49.63;100364.13;4993324;28;1017;-52
2023/12/03 09:06:30;;;;;;;;;;;;;;;16.01;48.63;100355.16;4997804;28;1068;-47
2023/12/03 09:08:56;;;;;;;;;;;;;;;15.82;48.12;100355.78;4992371;28;1280;-50
2023/12/03 09:11:23;;;;;;;;;;;;;;;16.53;49.53;100347.50;4997426;28;1003;-51
2023/12/03 09:13:49;;;;;;;;;;;;;;;16.14;49.17;100362.78;4982467;28;904;-48
2023/12/03 09:16:14;;;;;;;;;;;;;;;15.93;48.47;100366.69;4996611;28;1914;-52
2023/12/03 09:18:40;;;;;;;;;;;;;;;15.91;47.36;100364.25;4985064;28;1242;-50
2023/12/03 09:21:07;;;;;;;;;;;;;;;15.90;46.94;100371.63;4996514;28;1387;-49
2023/12/03 09:23:34;;;;;;;;;;;;;;;15.82;46.38;100372.22;4982617;28;2646;-47
2023/12/03 09:26:00;;;;;;;;;;;;;;;16.25;47.78;100374.53;4981324;28;942;-46
2023/12/03 09:28:25;;;;;;;;;;;;;;;16.30;49.33;100388.25;4991859;28;1022;-48
2023/12/03 09:30:51;;;;;;;;;;;;;;;16.14;48.73;100384.72;4990678;28;1399;-47
2023/12/03 09:33:21;;;;;;;;;;;;;;;15.97;47.99;100385.06;4990500;28;1164;-50
2023/12/03 09:35:47;;;;;;;;;;;;;;;15.83;47.11;100384.00;4985013;28;1977;-48
2023/12/03 09:38:14;;;;;;;;;;;;;;;15.81;46.92;100383.44;4994414;28;970;-53
2023/12/03 09:40:40;;;;;;;;;;;;;;;16.21;48.04;100385.22;4997825;28;1527;-50
2023/12/03 09:43:07;;;;;;;;;;;;;;;16.38;49.83;100384.91;5011986;28;1144;-52
2023/12/03 09:45:33;;;;;;;;;;;;;;;16.12;48.82;100380.59;4988009;28;1072;-50
2023/12/03 09:48:00;;;;;;;;;;;;;;;15.94;47.89;100380.13;4991805;28;1030;-48
2023/12/03 09:50:31;;;;;;;;;;;;;;;15.78;47.31;100373.84;4986009;28;1137;-49
2023/12/03 09:52:58;;;;;;;;;;;;;;;16.61;49.26;100382.59;4988711;28;2165;-49
2023/12/03 09:55:25;;;;;;;;;;;;;;;16.25;49.00;100380.03;4996397;28;1898;-51
2023/12/03 09:57:55;;;;;;;;;;;;;;;16.04;47.97;100382.84;4981226;28;1485;-49
2023/12/03 10:00:21;;;;;;;;;;;;;;;15.87;47.46;100385.09;4986047;28;1428;-49
2023/12/03 10:02:49;;;;;;;;;;;;;;;15.86;46.71;100383.44;4993947;28;1099;-50
2023/12/03 10:05:15;;;;;;;;;;;;;;;15.78;46.48;100389.47;4986799;28;1319;-53
2023/12/03 10:07:42;;;;;;;;;;;;;;;16.86;48.90;100397.28;5005710;28;1092;-50
2023/12/03 10:10:10;;;;;;;;;;;;;;;16.23;49.15;100382.25;4988630;28;1028;-49
2023/12/03 10:12:42;;;;;;;;;;;;;;;16.05;48.54;100389.16;5009494;28;1172;-49
2023/12/03 10:15:10;;;;;;;;;;;;;;;15.91;48.00;100386.19;4985229;28;1124;-49
2023/12/03 10:17:37;;;;;;;;;;;;;;;15.83;47.23;100373.03;4996400;28;1914;-48
2023/12/03 10:20:20;;;;;;;;;;;;;;;15.74;46.86;100381.81;4985140;28;1163;-51
2023/12/03 10:22:47;;;;;;;;;;;;;;;16.38;48.88;100387.66;4967122;28;2400;-49
2023/12/03 10:25:25;;;;;;;;;;;;;;;16.05;48.59;100389.16;4986913;28;1042;-54
2023/12/03 10:27:52;;;;;;;;;;;;;;;15.90;47.61;100387.28;4997107;28;996;-51
2023/12/03 10:30:17;;;;;;;;;;;;;;;15.81;47.21;100386.19;4993491;28;1083;-51
2023/12/03 10:32:44;;;;;;;;;;;;;;;16.29;48.13;100400.31;4986842;28;1085;-49
2023/12/03 10:35:11;;;;;;;;;;;;;;;16.27;49.27;100399.78;4979185;28;1495;-49
2023/12/03 10:37:40;;;;;;;;;;;;;;;16.05;48.25;100403.69;4986389;28;1994;-49
2023/12/03 10:40:08;;;;;;;;;;;;;;;15.90;47.75;100410.03;4982930;28;1203;-49
2023/12/03 10:42:40;;;;;;;;;;;;;;;16.10;47.81;100413.81;4994892;28;1348;-48
2023/12/03 10:45:15;;;;;;;;;;;;;;;16.41;49.26;100405.47;4992028;28;1067;-53
2023/12/03 10:47:42;;;;;;;;;;;;;;;16.08;48.67;100400.38;4989902;28;1148;-52
2023/12/03 10:50:11;;;;;;;;;;;;;;;15.99;47.81;100409.44;4976721;28;1153;-53
2023/12/03 10:52:38;;;;;;;;;;;;;;;15.87;47.09;100396.88;4983316;28;2423;-52
2023/12/03 10:55:05;;;;;;;;;;;;;;;15.85;46.78;100403.72;4971118;28;1113;-50
2023/12/03 10:57:34;;;;;;;;;;;;;;;15.77;46.56;100407.00;4983385;28;1914;-53
2023/12/03 11:00:00;;;;;;;;;;;;;;;15.74;46.27;100403.72;4995223;28;1281;-51
2023/12/03 11:02:25;;;;;;;;;;;;;;;16.45;48.17;100397.50;4995716;28;865;-53
2023/12/03 11:04:57;;;;;;;;;;;;;;;16.26;49.08;100403.63;4987355;28;1567;-53
2023/12/03 11:07:24;;;;;;;;;;;;;;;15.92;48.62;100415.22;4974265;28;1060;-49
2023/12/03 11:09:50;;;;;;;;;;;;;;;15.86;47.78;100410.88;5003037;28;1376;-50
2023/12/03 11:12:21;;;;;;;;;;;;;;;15.90;47.96;100418.25;4991440;28;993;-53
2023/12/03 11:14:47;;;;;;;;;;;;;;;16.46;49.04;100429.34;4987503;28;1148;-51
2023/12/03 11:17:15;;;;;;;;;;;;;;;16.11;48.63;100431.09;4982099;28;1985;-53
2023/12/03 11:19:41;;;;;;;;;;;;;;;15.94;47.80;100424.00;4996246;28;1008;-54
2023/12/03 11:22:13;;;;;;;;;;;;;;;16.12;48.29;100416.25;4992939;28;2079;-53
2023/12/03 11:24:47;;;;;;;;;;;;;;;16.23;48.88;100426.94;5001700;28;1141;-55
2023/12/03 11:27:15;;;;;;;;;;;;;;;16.03;48.10;100422.34;4994622;28;885;-52
2023/12/03 11:29:48;;;;;;;;;;;;;;;15.86;47.54;100419.09;4996569;28;1110;-50
2023/12/03 11:32:14;;;;;;;;;;;;;;;15.80;47.14;100412.78;4982555;28;1076;-52
2023/12/03 11:34:39;;;;;;;;;;;;;;;16.56;48.10;100418.28;4996330;28;1110;-51
2023/12/03 11:37:07;;;;;;;;;;;;;;;15.99;48.57;100425.91;4976859;28;1904;-52
2023/12/03 11:39:33;;;;;;;;;;;;;;;15.94;47.56;100426.75;4994696;28;1073;-50
2023/12/03 11:42:03;;;;;;;;;;;;;;;15.78;47.26;100439.66;4970539;28;1255;-48
2023/12/03 11:44:32;;;;;;;;;;;;;;;16.06;47.79;100435.50;4978875;28;1004;-52
2023/12/03 11:47:05;;;;;;;;;;;;;;;16.37;48.71;100443.63;4989092;28;929;-48
2023/12/03 11:49:33;;;;;;;;;;;;;;;16.10;48.30;100449.47;4987617;28;993;-52
2023/12/03 11:52:00;;;;;;;;;;;;;;;15.89;47.55;100444.03;4981094;28;2342;-50
2023/12/03 11:54:28;;;;;;;;;;;;;;;15.85;47.30;100450.34;4967638;28;1071;-53
2023/12/03 11:56:54;;;;;;;;;;;;;;;16.86;48.84;100466.75;4987818;28;1969;-50
2023/12/03 11:59:20;;;;;;;;;;;;;;;16.21;49.08;100450.25;4999649;28;1131;-54
2023/12/03 12:01:45;;;;;;;;;;;;;;;16.00;48.15;100466.75;4994666;28;1025;-52
2023/12/03 12:04:21;;;;;;;;;;;;;;;15.90;47.43;100459.38;4976475;28;1249;-50
2023/12/03 12:06:46;;;;;;;;;;;;;;;16.35;48.33;100475.19;4977326;28;1157;-51
2023/12/03 12:09:14;;;;;;;;;;;;;;;16.53;49.31;100482.00;4990157;28;1428;-50
2023/12/03 12:11:41;;;;;;;;;;;;;;;16.17;48.57;100482.94;4984792;28;1351;-52
2023/12/03 12:14:06;;;;;;;;;;;;;;;16.12;47.43;100471.13;4978310;28;1399;-52
2023/12/03 12:16:32;;;;;;;;;;;;;;;16.03;46.89;100479.94;4976296;28;1911;-53
2023/12/03 12:18:58;;;;;;;;;;;;;;;16.26;47.35;100483.19;4980107;28;1092;-52
2023/12/03 12:21:24;;;;;;;;;;;;;;;16.45;49.24;100477.09;4989239;28;1444;-50
2023/12/03 12:23:50;;;;;;;;;;;;;;;16.13;48.46;100478.25;4991567;28;2633;-51
2023/12/03 12:26:15;;;;;;;;;;;;;;;16.38;48.73;100483.69;4997404;28;1091;-53
2023/12/03 12:28:41;;;;;;;;;;;;;;;16.51;49.79;100484.19;4980042;28;1041;-50
2023/12/03 12:31:06;;;;;;;;;;;;;;;16.22;48.58;100480.16;4998161;28;1125;-51
2023/12/03 12:33:33;;;;;;;;;;;;;;;16.11;47.72;100473.06;4975212;28;1234;-49
2023/12/03 12:36:01;;;;;;;;;;;;;;;15.98;47.10;100482.69;4978279;28;1977;-53
2023/12/03 12:38:27;;;;;;;;;;;;;;;16.47;48.52;100474.91;4995423;28;1148;-50
2023/12/03 12:40:53;;;;;;;;;;;;;;;16.40;49.41;100470.50;4999101;28;1008;-48
2023/12/03 12:43:22;;;;;;;;;;;;;;;16.22;48.26;100479.34;4991544;28;1463;-48
2023/12/03 12:45:48;;;;;;;;;;;;;;;16.07;47.54;100475.56;4982711;28;1179;-52